sensor_id;sensor_type;location;lat;lon;timestamp;P1;durP1;ratioP1;P2;durP2;ratioP2
65033;SDS011;51601;51.356;12.458;2023-09-08T00:01:20;11.15;;;6.43;;
65033;SDS011;51601;51.356;12.458;2023-09-08T00:05:38;11.20;;;6.53;;
65033;SDS011;51601;51.356;12.458;2023-09-08T00:09:57;11.98;;;6.93;;
65033;SDS011;51601;51.356;12.458;2023-09-08T00:14:17;11.50;;;6.68;;
65033;SDS011;51601;51.356;12.458;2023-09-08T00:18:35;10.90;;;6.63;;
65033;SDS011;51601;51.356;12.458;2023-09-08T00:22:53;12.07;;;7.43;;
65033;SDS011;51601;51.356;12.458;2023-09-08T00:27:13;11.13;;;6.93;;
65033;SDS011;51601;51.356;12.458;2023-09-08T00:31:33;14.05;;;7.20;;
65033;SDS011;51601;51.356;12.458;2023-09-08T00:35:51;14.07;;;7.37;;
65033;SDS011;51601;51.356;12.458;2023-09-08T00:40:15;13.70;;;7.30;;
65033;SDS011;51601;51.356;12.458;2023-09-08T00:44:35;13.35;;;7.13;;
65033;SDS011;51601;51.356;12.458;2023-09-08T00:48:54;13.43;;;7.50;;
65033;SDS011;51601;51.356;12.458;2023-09-08T00:53:12;13.13;;;6.88;;
65033;SDS011;51601;51.356;12.458;2023-09-08T00:57:33;12.98;;;7.80;;
65033;SDS011;51601;51.356;12.458;2023-09-08T01:01:52;13.10;;;7.30;;
65033;SDS011;51601;51.356;12.458;2023-09-08T01:06:15;12.38;;;7.80;;
65033;SDS011;51601;51.356;12.458;2023-09-08T01:10:33;12.50;;;6.95;;
65033;SDS011;51601;51.356;12.458;2023-09-08T01:14:51;11.52;;;7.40;;
65033;SDS011;51601;51.356;12.458;2023-09-08T01:19:11;13.30;;;7.43;;
65033;SDS011;51601;51.356;12.458;2023-09-08T01:23:37;13.88;;;8.15;;
65033;SDS011;51601;51.356;12.458;2023-09-08T01:28:15;12.80;;;7.07;;
65033;SDS011;51601;51.356;12.458;2023-09-08T01:32:34;13.10;;;8.23;;
65033;SDS011;51601;51.356;12.458;2023-09-08T01:36:52;15.68;;;7.60;;
65033;SDS011;51601;51.356;12.458;2023-09-08T01:41:10;12.07;;;7.53;;
65033;SDS011;51601;51.356;12.458;2023-09-08T01:45:33;11.80;;;7.20;;
65033;SDS011;51601;51.356;12.458;2023-09-08T01:49:53;11.40;;;7.65;;
65033;SDS011;51601;51.356;12.458;2023-09-08T01:54:11;14.40;;;7.90;;
65033;SDS011;51601;51.356;12.458;2023-09-08T01:58:32;14.27;;;8.15;;
65033;SDS011;51601;51.356;12.458;2023-09-08T02:02:51;13.80;;;8.20;;
65033;SDS011;51601;51.356;12.458;2023-09-08T02:07:08;15.25;;;7.82;;
65033;SDS011;51601;51.356;12.458;2023-09-08T02:11:26;12.48;;;7.45;;
65033;SDS011;51601;51.356;12.458;2023-09-08T02:15:44;13.17;;;8.00;;
65033;SDS011;51601;51.356;12.458;2023-09-08T02:20:04;11.57;;;7.45;;
65033;SDS011;51601;51.356;12.458;2023-09-08T02:24:23;12.23;;;7.45;;
65033;SDS011;51601;51.356;12.458;2023-09-08T02:28:44;13.17;;;7.40;;
65033;SDS011;51601;51.356;12.458;2023-09-08T02:33:03;12.32;;;7.45;;
65033;SDS011;51601;51.356;12.458;2023-09-08T02:37:25;12.57;;;7.70;;
65033;SDS011;51601;51.356;12.458;2023-09-08T02:41:42;12.55;;;7.32;;
65033;SDS011;51601;51.356;12.458;2023-09-08T02:46:00;14.57;;;7.40;;
65033;SDS011;51601;51.356;12.458;2023-09-08T02:50:21;12.77;;;7.60;;
65033;SDS011;51601;51.356;12.458;2023-09-08T02:54:41;11.60;;;7.28;;
65033;SDS011;51601;51.356;12.458;2023-09-08T02:59:00;13.07;;;7.90;;
65033;SDS011;51601;51.356;12.458;2023-09-08T03:03:18;13.20;;;7.88;;
65033;SDS011;51601;51.356;12.458;2023-09-08T03:07:36;11.82;;;7.72;;
65033;SDS011;51601;51.356;12.458;2023-09-08T03:11:56;14.30;;;8.23;;
65033;SDS011;51601;51.356;12.458;2023-09-08T03:16:12;14.60;;;7.30;;
65033;SDS011;51601;51.356;12.458;2023-09-08T03:20:30;13.40;;;7.97;;
65033;SDS011;51601;51.356;12.458;2023-09-08T03:24:48;12.35;;;8.23;;
65033;SDS011;51601;51.356;12.458;2023-09-08T03:29:08;15.80;;;8.60;;
65033;SDS011;51601;51.356;12.458;2023-09-08T03:33:28;14.88;;;8.80;;
65033;SDS011;51601;51.356;12.458;2023-09-08T03:37:46;12.80;;;8.13;;
65033;SDS011;51601;51.356;12.458;2023-09-08T03:42:04;14.13;;;8.30;;
65033;SDS011;51601;51.356;12.458;2023-09-08T03:46:23;14.13;;;8.65;;
65033;SDS011;51601;51.356;12.458;2023-09-08T03:50:43;14.32;;;8.52;;
65033;SDS011;51601;51.356;12.458;2023-09-08T03:55:04;14.60;;;8.10;;
65033;SDS011;51601;51.356;12.458;2023-09-08T03:59:22;14.68;;;8.52;;
65033;SDS011;51601;51.356;12.458;2023-09-08T04:03:41;13.15;;;8.48;;
65033;SDS011;51601;51.356;12.458;2023-09-08T04:08:01;13.80;;;8.32;;
65033;SDS011;51601;51.356;12.458;2023-09-08T04:12:26;12.47;;;6.10;;
65033;SDS011;51601;51.356;12.458;2023-09-08T04:16:43;13.32;;;7.40;;
65033;SDS011;51601;51.356;12.458;2023-09-08T04:21:05;10.80;;;6.60;;
65033;SDS011;51601;51.356;12.458;2023-09-08T04:25:23;13.07;;;6.90;;
65033;SDS011;51601;51.356;12.458;2023-09-08T04:29:41;13.82;;;7.10;;
65033;SDS011;51601;51.356;12.458;2023-09-08T04:33:59;12.02;;;6.55;;
65033;SDS011;51601;51.356;12.458;2023-09-08T04:38:18;12.17;;;7.30;;
65033;SDS011;51601;51.356;12.458;2023-09-08T04:42:38;12.80;;;7.43;;
65033;SDS011;51601;51.356;12.458;2023-09-08T04:46:56;11.75;;;7.55;;
65033;SDS011;51601;51.356;12.458;2023-09-08T04:51:14;14.13;;;7.53;;
65033;SDS011;51601;51.356;12.458;2023-09-08T04:55:36;13.53;;;7.43;;
65033;SDS011;51601;51.356;12.458;2023-09-08T04:59:56;12.43;;;7.00;;
65033;SDS011;51601;51.356;12.458;2023-09-08T05:04:14;13.27;;;7.20;;
65033;SDS011;51601;51.356;12.458;2023-09-08T05:08:35;11.30;;;6.97;;
65033;SDS011;51601;51.356;12.458;2023-09-08T05:12:55;13.63;;;6.90;;
65033;SDS011;51601;51.356;12.458;2023-09-08T05:17:15;11.35;;;6.43;;
65033;SDS011;51601;51.356;12.458;2023-09-08T05:21:33;11.47;;;6.57;;
65033;SDS011;51601;51.356;12.458;2023-09-08T05:25:54;20.48;;;12.98;;
65033;SDS011;51601;51.356;12.458;2023-09-08T05:30:13;11.70;;;7.10;;
65033;SDS011;51601;51.356;12.458;2023-09-08T05:34:33;14.00;;;7.20;;
65033;SDS011;51601;51.356;12.458;2023-09-08T05:38:51;13.93;;;6.80;;
65033;SDS011;51601;51.356;12.458;2023-09-08T05:43:09;11.50;;;7.05;;
65033;SDS011;51601;51.356;12.458;2023-09-08T05:47:29;11.20;;;6.18;;
65033;SDS011;51601;51.356;12.458;2023-09-08T05:51:48;9.90;;;6.47;;
65033;SDS011;51601;51.356;12.458;2023-09-08T05:56:06;10.77;;;6.00;;
65033;SDS011;51601;51.356;12.458;2023-09-08T06:00:28;11.52;;;6.40;;
65033;SDS011;51601;51.356;12.458;2023-09-08T06:04:47;10.03;;;6.13;;
65033;SDS011;51601;51.356;12.458;2023-09-08T06:09:07;9.05;;;5.88;;
65033;SDS011;51601;51.356;12.458;2023-09-08T06:13:28;13.10;;;6.05;;
65033;SDS011;51601;51.356;12.458;2023-09-08T06:17:46;10.20;;;5.75;;
65033;SDS011;51601;51.356;12.458;2023-09-08T06:22:05;10.53;;;6.23;;
65033;SDS011;51601;51.356;12.458;2023-09-08T06:26:22;11.38;;;6.15;;
65033;SDS011;51601;51.356;12.458;2023-09-08T06:30:40;9.65;;;5.90;;
65033;SDS011;51601;51.356;12.458;2023-09-08T06:34:58;10.83;;;6.00;;
65033;SDS011;51601;51.356;12.458;2023-09-08T06:39:18;11.00;;;5.97;;
65033;SDS011;51601;51.356;12.458;2023-09-08T06:43:37;10.63;;;5.82;;
65033;SDS011;51601;51.356;12.458;2023-09-08T06:48:08;10.97;;;5.87;;
65033;SDS011;51601;51.356;12.458;2023-09-08T06:52:26;9.75;;;5.53;;
65033;SDS011;51601;51.356;12.458;2023-09-08T06:56:45;12.98;;;6.20;;
65033;SDS011;51601;51.356;12.458;2023-09-08T07:01:05;9.85;;;5.70;;
65033;SDS011;51601;51.356;12.458;2023-09-08T07:05:23;12.67;;;6.37;;
65033;SDS011;51601;51.356;12.458;2023-09-08T07:09:41;9.70;;;5.70;;
65033;SDS011;51601;51.356;12.458;2023-09-08T07:14:00;9.93;;;5.85;;
65033;SDS011;51601;51.356;12.458;2023-09-08T07:18:20;9.47;;;6.03;;
65033;SDS011;51601;51.356;12.458;2023-09-08T07:22:38;10.52;;;6.18;;
65033;SDS011;51601;51.356;12.458;2023-09-08T07:27:00;11.02;;;7.00;;
65033;SDS011;51601;51.356;12.458;2023-09-08T07:31:19;10.23;;;6.43;;
65033;SDS011;51601;51.356;12.458;2023-09-08T07:35:39;12.45;;;7.45;;
65033;SDS011;51601;51.356;12.458;2023-09-08T07:39:57;11.02;;;6.40;;
65033;SDS011;51601;51.356;12.458;2023-09-08T07:44:15;10.88;;;6.07;;
65033;SDS011;51601;51.356;12.458;2023-09-08T07:48:37;9.23;;;5.60;;
65033;SDS011;51601;51.356;12.458;2023-09-08T07:52:57;10.05;;;5.40;;
65033;SDS011;51601;51.356;12.458;2023-09-08T07:57:15;9.68;;;5.35;;
65033;SDS011;51601;51.356;12.458;2023-09-08T08:01:33;9.40;;;5.33;;
65033;SDS011;51601;51.356;12.458;2023-09-08T08:05:52;9.38;;;4.93;;
65033;SDS011;51601;51.356;12.458;2023-09-08T08:10:10;9.60;;;4.55;;
65033;SDS011;51601;51.356;12.458;2023-09-08T08:14:27;10.23;;;4.83;;
65033;SDS011;51601;51.356;12.458;2023-09-08T08:18:45;8.55;;;4.68;;
65033;SDS011;51601;51.356;12.458;2023-09-08T08:23:05;9.13;;;4.80;;
65033;SDS011;51601;51.356;12.458;2023-09-08T08:27:25;9.15;;;4.75;;
65033;SDS011;51601;51.356;12.458;2023-09-08T08:31:46;9.67;;;4.27;;
65033;SDS011;51601;51.356;12.458;2023-09-08T08:36:04;9.18;;;4.63;;
65033;SDS011;51601;51.356;12.458;2023-09-08T08:40:26;7.78;;;3.72;;
65033;SDS011;51601;51.356;12.458;2023-09-08T08:44:46;8.33;;;4.63;;
65033;SDS011;51601;51.356;12.458;2023-09-08T08:49:04;8.23;;;4.20;;
65033;SDS011;51601;51.356;12.458;2023-09-08T08:53:22;9.05;;;4.72;;
65033;SDS011;51601;51.356;12.458;2023-09-08T08:57:42;9.17;;;5.07;;
65033;SDS011;51601;51.356;12.458;2023-09-08T09:02:01;8.48;;;5.00;;
65033;SDS011;51601;51.356;12.458;2023-09-08T09:06:19;9.50;;;4.18;;
65033;SDS011;51601;51.356;12.458;2023-09-08T09:10:37;9.43;;;4.38;;
65033;SDS011;51601;51.356;12.458;2023-09-08T09:14:57;8.67;;;4.47;;
65033;SDS011;51601;51.356;12.458;2023-09-08T09:19:17;8.93;;;4.72;;
65033;SDS011;51601;51.356;12.458;2023-09-08T09:23:41;7.88;;;4.63;;
65033;SDS011;51601;51.356;12.458;2023-09-08T09:28:00;7.60;;;4.37;;
65033;SDS011;51601;51.356;12.458;2023-09-08T09:32:23;6.88;;;4.45;;
65033;SDS011;51601;51.356;12.458;2023-09-08T09:36:44;8.13;;;4.40;;
65033;SDS011;51601;51.356;12.458;2023-09-08T09:41:05;8.40;;;4.40;;
65033;SDS011;51601;51.356;12.458;2023-09-08T09:45:24;8.05;;;4.07;;
65033;SDS011;51601;51.356;12.458;2023-09-08T09:49:43;8.35;;;4.43;;
65033;SDS011;51601;51.356;12.458;2023-09-08T09:54:03;9.68;;;4.28;;
65033;SDS011;51601;51.356;12.458;2023-09-08T09:58:21;8.57;;;4.37;;
65033;SDS011;51601;51.356;12.458;2023-09-08T10:02:39;7.95;;;4.38;;
65033;SDS011;51601;51.356;12.458;2023-09-08T10:06:58;7.20;;;3.75;;
65033;SDS011;51601;51.356;12.458;2023-09-08T10:11:19;7.00;;;4.10;;
65033;SDS011;51601;51.356;12.458;2023-09-08T10:15:39;7.85;;;4.07;;
65033;SDS011;51601;51.356;12.458;2023-09-08T10:19:58;8.20;;;3.80;;
65033;SDS011;51601;51.356;12.458;2023-09-08T10:24:29;7.60;;;4.00;;
65033;SDS011;51601;51.356;12.458;2023-09-08T10:28:52;8.73;;;4.50;;
65033;SDS011;51601;51.356;12.458;2023-09-08T10:33:13;9.10;;;4.18;;
65033;SDS011;51601;51.356;12.458;2023-09-08T10:37:31;9.27;;;4.15;;
65033;SDS011;51601;51.356;12.458;2023-09-08T10:41:50;7.83;;;3.93;;
65033;SDS011;51601;51.356;12.458;2023-09-08T10:46:29;6.60;;;3.40;;
65033;SDS011;51601;51.356;12.458;2023-09-08T10:50:49;6.90;;;3.58;;
65033;SDS011;51601;51.356;12.458;2023-09-08T10:55:08;6.70;;;3.90;;
65033;SDS011;51601;51.356;12.458;2023-09-08T10:59:30;7.30;;;3.85;;
65033;SDS011;51601;51.356;12.458;2023-09-08T11:03:53;7.20;;;3.70;;
65033;SDS011;51601;51.356;12.458;2023-09-08T11:08:11;6.80;;;3.60;;
65033;SDS011;51601;51.356;12.458;2023-09-08T11:12:29;6.93;;;3.70;;
65033;SDS011;51601;51.356;12.458;2023-09-08T11:16:48;7.03;;;3.55;;
65033;SDS011;51601;51.356;12.458;2023-09-08T11:21:07;7.10;;;3.63;;
65033;SDS011;51601;51.356;12.458;2023-09-08T11:25:26;7.43;;;3.50;;
65033;SDS011;51601;51.356;12.458;2023-09-08T11:29:44;7.22;;;3.90;;
65033;SDS011;51601;51.356;12.458;2023-09-08T11:34:04;7.57;;;3.72;;
65033;SDS011;51601;51.356;12.458;2023-09-08T11:38:24;7.13;;;3.80;;
65033;SDS011;51601;51.356;12.458;2023-09-08T11:42:45;7.57;;;3.65;;
65033;SDS011;51601;51.356;12.458;2023-09-08T11:47:03;6.55;;;3.42;;
65033;SDS011;51601;51.356;12.458;2023-09-08T11:51:26;8.43;;;3.80;;
65033;SDS011;51601;51.356;12.458;2023-09-08T11:55:45;6.82;;;3.60;;
65033;SDS011;51601;51.356;12.458;2023-09-08T12:00:03;7.53;;;3.97;;
65033;SDS011;51601;51.356;12.458;2023-09-08T12:04:27;8.00;;;3.80;;
65033;SDS011;51601;51.356;12.458;2023-09-08T12:08:47;7.47;;;4.00;;
65033;SDS011;51601;51.356;12.458;2023-09-08T12:13:03;8.02;;;4.25;;
65033;SDS011;51601;51.356;12.458;2023-09-08T12:17:21;8.63;;;4.03;;
65033;SDS011;51601;51.356;12.458;2023-09-08T12:21:54;9.17;;;4.40;;
65033;SDS011;51601;51.356;12.458;2023-09-08T12:26:14;7.75;;;4.10;;
65033;SDS011;51601;51.356;12.458;2023-09-08T12:30:34;7.63;;;3.78;;
65033;SDS011;51601;51.356;12.458;2023-09-08T12:34:52;8.20;;;3.97;;
65033;SDS011;51601;51.356;12.458;2023-09-08T12:39:10;9.43;;;4.65;;
65033;SDS011;51601;51.356;12.458;2023-09-08T12:43:30;8.38;;;3.95;;
65033;SDS011;51601;51.356;12.458;2023-09-08T12:47:49;7.43;;;3.83;;
65033;SDS011;51601;51.356;12.458;2023-09-08T12:52:07;8.30;;;4.10;;
65033;SDS011;51601;51.356;12.458;2023-09-08T12:56:25;7.63;;;4.20;;
65033;SDS011;51601;51.356;12.458;2023-09-08T13:00:45;8.40;;;4.30;;
65033;SDS011;51601;51.356;12.458;2023-09-08T13:05:05;7.47;;;4.37;;
65033;SDS011;51601;51.356;12.458;2023-09-08T13:09:29;7.25;;;3.90;;
65033;SDS011;51601;51.356;12.458;2023-09-08T13:13:47;7.75;;;3.95;;
65033;SDS011;51601;51.356;12.458;2023-09-08T13:18:06;8.83;;;3.97;;
65033;SDS011;51601;51.356;12.458;2023-09-08T13:22:26;7.22;;;3.95;;
65033;SDS011;51601;51.356;12.458;2023-09-08T13:26:44;8.25;;;4.22;;
65033;SDS011;51601;51.356;12.458;2023-09-08T13:31:02;8.13;;;3.75;;
65033;SDS011;51601;51.356;12.458;2023-09-08T13:35:22;8.07;;;4.00;;
65033;SDS011;51601;51.356;12.458;2023-09-08T13:39:41;7.72;;;4.00;;
65033;SDS011;51601;51.356;12.458;2023-09-08T13:43:59;7.20;;;3.75;;
65033;SDS011;51601;51.356;12.458;2023-09-08T13:48:17;8.53;;;4.00;;
65033;SDS011;51601;51.356;12.458;2023-09-08T13:52:37;7.95;;;4.05;;
65033;SDS011;51601;51.356;12.458;2023-09-08T13:57:00;7.97;;;3.88;;
65033;SDS011;51601;51.356;12.458;2023-09-08T14:01:24;6.90;;;3.50;;
65033;SDS011;51601;51.356;12.458;2023-09-08T14:05:48;9.35;;;4.47;;
65033;SDS011;51601;51.356;12.458;2023-09-08T14:10:11;7.22;;;3.67;;
65033;SDS011;51601;51.356;12.458;2023-09-08T14:14:46;7.45;;;3.70;;
65033;SDS011;51601;51.356;12.458;2023-09-08T14:19:07;6.80;;;3.60;;
65033;SDS011;51601;51.356;12.458;2023-09-08T14:23:25;8.02;;;3.50;;
65033;SDS011;51601;51.356;12.458;2023-09-08T14:27:44;8.13;;;3.53;;
65033;SDS011;51601;51.356;12.458;2023-09-08T14:32:01;7.67;;;3.80;;
65033;SDS011;51601;51.356;12.458;2023-09-08T14:36:19;7.10;;;3.28;;
65033;SDS011;51601;51.356;12.458;2023-09-08T14:40:37;9.63;;;3.60;;
65033;SDS011;51601;51.356;12.458;2023-09-08T14:44:57;9.90;;;3.90;;
65033;SDS011;51601;51.356;12.458;2023-09-08T14:49:16;6.60;;;3.67;;
65033;SDS011;51601;51.356;12.458;2023-09-08T14:53:37;6.70;;;3.70;;
65033;SDS011;51601;51.356;12.458;2023-09-08T14:57:55;7.38;;;3.50;;
65033;SDS011;51601;51.356;12.458;2023-09-08T15:02:15;9.17;;;3.73;;
65033;SDS011;51601;51.356;12.458;2023-09-08T15:06:35;10.85;;;3.70;;
65033;SDS011;51601;51.356;12.458;2023-09-08T15:10:56;7.40;;;3.53;;
65033;SDS011;51601;51.356;12.458;2023-09-08T15:15:14;8.33;;;3.60;;
65033;SDS011;51601;51.356;12.458;2023-09-08T15:19:36;8.63;;;3.65;;
65033;SDS011;51601;51.356;12.458;2023-09-08T15:23:56;6.82;;;3.53;;
65033;SDS011;51601;51.356;12.458;2023-09-08T15:28:15;7.40;;;3.50;;
65033;SDS011;51601;51.356;12.458;2023-09-08T15:32:35;8.75;;;3.50;;
65033;SDS011;51601;51.356;12.458;2023-09-08T15:36:55;6.97;;;3.65;;
65033;SDS011;51601;51.356;12.458;2023-09-08T15:41:15;6.53;;;3.25;;
65033;SDS011;51601;51.356;12.458;2023-09-08T15:45:36;10.10;;;3.70;;
65033;SDS011;51601;51.356;12.458;2023-09-08T15:49:54;9.00;;;3.33;;
65033;SDS011;51601;51.356;12.458;2023-09-08T15:54:13;6.93;;;3.30;;
65033;SDS011;51601;51.356;12.458;2023-09-08T15:58:30;6.83;;;3.53;;
65033;SDS011;51601;51.356;12.458;2023-09-08T16:02:48;7.88;;;3.20;;
65033;SDS011;51601;51.356;12.458;2023-09-08T16:07:06;10.15;;;3.40;;
65033;SDS011;51601;51.356;12.458;2023-09-08T16:11:25;7.23;;;3.23;;
65033;SDS011;51601;51.356;12.458;2023-09-08T16:15:42;7.28;;;3.72;;
65033;SDS011;51601;51.356;12.458;2023-09-08T16:20:00;7.90;;;4.10;;
65033;SDS011;51601;51.356;12.458;2023-09-08T16:24:18;7.15;;;3.63;;
65033;SDS011;51601;51.356;12.458;2023-09-08T16:28:39;8.60;;;4.07;;
65033;SDS011;51601;51.356;12.458;2023-09-08T16:32:57;7.53;;;3.92;;
65033;SDS011;51601;51.356;12.458;2023-09-08T16:37:15;9.38;;;4.05;;
65033;SDS011;51601;51.356;12.458;2023-09-08T16:41:33;8.17;;;3.73;;
65033;SDS011;51601;51.356;12.458;2023-09-08T16:45:53;7.07;;;3.55;;
65033;SDS011;51601;51.356;12.458;2023-09-08T16:50:09;9.15;;;3.88;;
65033;SDS011;51601;51.356;12.458;2023-09-08T16:54:28;8.30;;;4.00;;
65033;SDS011;51601;51.356;12.458;2023-09-08T16:58:46;8.50;;;3.97;;
65033;SDS011;51601;51.356;12.458;2023-09-08T17:03:08;7.82;;;3.95;;
65033;SDS011;51601;51.356;12.458;2023-09-08T17:07:28;8.32;;;3.90;;
65033;SDS011;51601;51.356;12.458;2023-09-08T17:11:46;8.97;;;3.60;;
65033;SDS011;51601;51.356;12.458;2023-09-08T17:16:04;8.27;;;3.70;;
65033;SDS011;51601;51.356;12.458;2023-09-08T17:20:23;7.47;;;3.60;;
65033;SDS011;51601;51.356;12.458;2023-09-08T17:24:43;7.90;;;3.90;;
65033;SDS011;51601;51.356;12.458;2023-09-08T17:29:01;8.70;;;3.55;;
65033;SDS011;51601;51.356;12.458;2023-09-08T17:33:19;7.35;;;3.67;;
65033;SDS011;51601;51.356;12.458;2023-09-08T17:37:39;9.23;;;4.40;;
65033;SDS011;51601;51.356;12.458;2023-09-08T17:42:05;8.43;;;4.03;;
65033;SDS011;51601;51.356;12.458;2023-09-08T17:46:23;8.88;;;4.28;;
65033;SDS011;51601;51.356;12.458;2023-09-08T17:50:41;8.38;;;4.07;;
65033;SDS011;51601;51.356;12.458;2023-09-08T17:55:00;8.47;;;4.33;;
65033;SDS011;51601;51.356;12.458;2023-09-08T17:59:20;7.68;;;4.32;;
65033;SDS011;51601;51.356;12.458;2023-09-08T18:03:38;9.35;;;4.63;;
65033;SDS011;51601;51.356;12.458;2023-09-08T18:07:56;9.33;;;4.33;;
65033;SDS011;51601;51.356;12.458;2023-09-08T18:12:15;10.70;;;4.30;;
65033;SDS011;51601;51.356;12.458;2023-09-08T18:16:35;9.43;;;4.90;;
65033;SDS011;51601;51.356;12.458;2023-09-08T18:20:53;8.83;;;4.50;;
65033;SDS011;51601;51.356;12.458;2023-09-08T18:25:12;7.88;;;4.25;;
65033;SDS011;51601;51.356;12.458;2023-09-08T18:29:34;8.30;;;4.30;;
65033;SDS011;51601;51.356;12.458;2023-09-08T18:33:54;9.38;;;4.38;;
65033;SDS011;51601;51.356;12.458;2023-09-08T18:38:12;8.13;;;4.23;;
65033;SDS011;51601;51.356;12.458;2023-09-08T18:42:30;9.60;;;4.57;;
65033;SDS011;51601;51.356;12.458;2023-09-08T18:46:49;9.57;;;4.78;;
65033;SDS011;51601;51.356;12.458;2023-09-08T18:51:06;8.10;;;4.50;;
65033;SDS011;51601;51.356;12.458;2023-09-08T18:55:24;10.20;;;4.47;;
65033;SDS011;51601;51.356;12.458;2023-09-08T18:59:42;10.05;;;4.72;;
65033;SDS011;51601;51.356;12.458;2023-09-08T19:04:01;9.73;;;4.60;;
65033;SDS011;51601;51.356;12.458;2023-09-08T19:08:18;9.70;;;4.63;;
65033;SDS011;51601;51.356;12.458;2023-09-08T19:12:36;8.27;;;4.45;;
65033;SDS011;51601;51.356;12.458;2023-09-08T19:16:54;8.88;;;4.88;;
65033;SDS011;51601;51.356;12.458;2023-09-08T19:21:17;9.23;;;5.20;;
65033;SDS011;51601;51.356;12.458;2023-09-08T19:25:36;9.95;;;5.00;;
65033;SDS011;51601;51.356;12.458;2023-09-08T19:29:58;10.40;;;5.10;;
65033;SDS011;51601;51.356;12.458;2023-09-08T19:34:19;10.57;;;5.40;;
65033;SDS011;51601;51.356;12.458;2023-09-08T19:38:38;9.30;;;5.20;;
65033;SDS011;51601;51.356;12.458;2023-09-08T19:42:58;11.75;;;5.25;;
65033;SDS011;51601;51.356;12.458;2023-09-08T19:47:16;9.73;;;5.37;;
65033;SDS011;51601;51.356;12.458;2023-09-08T19:51:34;10.45;;;5.10;;
65033;SDS011;51601;51.356;12.458;2023-09-08T19:55:53;9.20;;;5.03;;
65033;SDS011;51601;51.356;12.458;2023-09-08T20:00:13;10.52;;;5.47;;
65033;SDS011;51601;51.356;12.458;2023-09-08T20:04:31;11.17;;;6.03;;
65033;SDS011;51601;51.356;12.458;2023-09-08T20:08:49;11.32;;;6.47;;
65033;SDS011;51601;51.356;12.458;2023-09-08T20:13:09;13.50;;;7.10;;
65033;SDS011;51601;51.356;12.458;2023-09-08T20:17:25;14.07;;;6.90;;
65033;SDS011;51601;51.356;12.458;2023-09-08T20:21:43;11.48;;;5.95;;
65033;SDS011;51601;51.356;12.458;2023-09-08T20:26:02;11.30;;;5.85;;
65033;SDS011;51601;51.356;12.458;2023-09-08T20:30:21;12.90;;;6.20;;
65033;SDS011;51601;51.356;12.458;2023-09-08T20:34:41;11.10;;;5.72;;
65033;SDS011;51601;51.356;12.458;2023-09-08T20:38:59;10.82;;;6.30;;
65033;SDS011;51601;51.356;12.458;2023-09-08T20:43:17;12.02;;;5.25;;
65033;SDS011;51601;51.356;12.458;2023-09-08T20:47:39;10.00;;;5.60;;
65033;SDS011;51601;51.356;12.458;2023-09-08T20:51:59;9.70;;;5.25;;
65033;SDS011;51601;51.356;12.458;2023-09-08T20:56:17;9.48;;;5.53;;
65033;SDS011;51601;51.356;12.458;2023-09-08T21:00:35;9.07;;;5.10;;
65033;SDS011;51601;51.356;12.458;2023-09-08T21:04:54;9.23;;;5.07;;
65033;SDS011;51601;51.356;12.458;2023-09-08T21:09:14;10.63;;;5.53;;
65033;SDS011;51601;51.356;12.458;2023-09-08T21:13:33;9.97;;;5.70;;
65033;SDS011;51601;51.356;12.458;2023-09-08T21:17:50;9.52;;;5.38;;
65033;SDS011;51601;51.356;12.458;2023-09-08T21:22:10;11.70;;;5.63;;
65033;SDS011;51601;51.356;12.458;2023-09-08T21:26:30;8.82;;;5.50;;
65033;SDS011;51601;51.356;12.458;2023-09-08T21:30:48;11.10;;;5.40;;
65033;SDS011;51601;51.356;12.458;2023-09-08T21:35:06;11.52;;;5.72;;
65033;SDS011;51601;51.356;12.458;2023-09-08T21:39:28;10.70;;;5.28;;
65033;SDS011;51601;51.356;12.458;2023-09-08T21:43:48;9.30;;;5.60;;
65033;SDS011;51601;51.356;12.458;2023-09-08T21:48:06;9.68;;;5.45;;
65033;SDS011;51601;51.356;12.458;2023-09-08T21:52:24;10.52;;;6.10;;
65033;SDS011;51601;51.356;12.458;2023-09-08T21:56:56;12.73;;;6.07;;
65033;SDS011;51601;51.356;12.458;2023-09-08T22:01:12;9.93;;;5.32;;
65033;SDS011;51601;51.356;12.458;2023-09-08T22:05:30;13.55;;;5.68;;
65033;SDS011;51601;51.356;12.458;2023-09-08T22:09:50;9.82;;;5.85;;
65033;SDS011;51601;51.356;12.458;2023-09-08T22:14:13;12.67;;;5.63;;
65033;SDS011;51601;51.356;12.458;2023-09-08T22:18:31;10.55;;;5.63;;
65033;SDS011;51601;51.356;12.458;2023-09-08T22:22:49;11.57;;;6.13;;
65033;SDS011;51601;51.356;12.458;2023-09-08T22:27:07;13.87;;;6.17;;
65033;SDS011;51601;51.356;12.458;2023-09-08T22:31:26;9.80;;;5.90;;
65033;SDS011;51601;51.356;12.458;2023-09-08T22:35:43;11.32;;;5.75;;
65033;SDS011;51601;51.356;12.458;2023-09-08T22:40:01;12.43;;;6.27;;
65033;SDS011;51601;51.356;12.458;2023-09-08T22:44:22;11.68;;;6.40;;
65033;SDS011;51601;51.356;12.458;2023-09-08T22:48:42;11.23;;;6.30;;
65033;SDS011;51601;51.356;12.458;2023-09-08T22:53:01;11.77;;;5.90;;
65033;SDS011;51601;51.356;12.458;2023-09-08T22:57:22;12.50;;;6.30;;
65033;SDS011;51601;51.356;12.458;2023-09-08T23:01:41;10.88;;;6.40;;
65033;SDS011;51601;51.356;12.458;2023-09-08T23:06:00;12.18;;;6.93;;
65033;SDS011;51601;51.356;12.458;2023-09-08T23:10:17;11.93;;;6.60;;
65033;SDS011;51601;51.356;12.458;2023-09-08T23:14:35;10.85;;;6.57;;
65033;SDS011;51601;51.356;12.458;2023-09-08T23:19:08;12.13;;;6.70;;
65033;SDS011;51601;51.356;12.458;2023-09-08T23:23:28;12.23;;;6.40;;
65033;SDS011;51601;51.356;12.458;2023-09-08T23:27:47;11.52;;;6.60;;
65033;SDS011;51601;51.356;12.458;2023-09-08T23:32:08;11.57;;;6.40;;
65033;SDS011;51601;51.356;12.458;2023-09-08T23:36:26;13.35;;;6.88;;
65033;SDS011;51601;51.356;12.458;2023-09-08T23:40:46;11.33;;;6.17;;
65033;SDS011;51601;51.356;12.458;2023-09-08T23:45:06;10.27;;;6.53;;
65033;SDS011;51601;51.356;12.458;2023-09-08T23:49:24;11.20;;;6.70;;
65033;SDS011;51601;51.356;12.458;2023-09-08T23:53:42;13.63;;;6.77;;
65033;SDS011;51601;51.356;12.458;2023-09-08T23:58:01;11.77;;;6.38;;
